Time;durP1;ratioP1;P1;durP2;ratioP2;P2;SDS_P1;SDS_P2;PMS_P1;PMS_P2;Temp;Humidity;BMP_temperature;BMP_pressure;BME280_temperature;BME280_humidity;BME280_pressure;Samples;Min_cycle;Max_cycle;Signal;HPM_P1;HPM_P2
2021/03/26 00:00:34;;;;;;;1.3;1;;;;;;;;;;;;;
2021/03/26 00:03:01;;;;;;;4;1.1;;;;;;;;;;;;;
2021/03/26 00:05:26;;;;;;;4.3;2;;;;;;;;;;;;;
2021/03/26 00:07:52;;;;;;;2.4;1.7;;;;;;;;;;;;;
2021/03/26 00:10:17;;;;;;;3;1.7;;;;;;;;;;;;;
2021/03/26 00:12:45;;;;;;;3.7;2;;;;;;;;;;;;;
2021/03/26 00:15:10;;;;;;;1.3;1.1;;;;;;;;;;;;;
2021/03/26 00:17:36;;;;;;;1.4;1.1;;;;;;;;;;;;;
2021/03/26 00:20:01;;;;;;;2.5;1.3;;;;;;;;;;;;;
2021/03/26 00:22:26;;;;;;;4.5;1.6;;;;;;;;;;;;;
2021/03/26 00:24:51;;;;;;;3.4;1.5;;;;;;;;;;;;;
2021/03/26 00:27:17;;;;;;;2.9;1.7;;;;;;;;;;;;;
2021/03/26 00:29:42;;;;;;;0.8;0.8;;;;;;;;;;;;;
2021/03/26 00:32:08;;;;;;;3;1.8;;;;;;;;;;;;;
2021/03/26 00:34:33;;;;;;;1.4;0.9;;;;;;;;;;;;;
2021/03/26 00:37:00;;;;;;;2;1.2;;;;;;;;;;;;;
2021/03/26 00:39:25;;;;;;;2.9;1.6;;;;;;;;;;;;;
2021/03/26 00:41:52;;;;;;;2.1;1.2;;;;;;;;;;;;;
2021/03/26 00:44:17;;;;;;;4.4;1.8;;;;;;;;;;;;;
2021/03/26 00:46:43;;;;;;;1.3;0.9;;;;;;;;;;;;;
2021/03/26 00:49:08;;;;;;;4.7;1.4;;;;;;;;;;;;;
2021/03/26 00:51:33;;;;;;;0.8;0.8;;;;;;;;;;;;;
2021/03/26 00:53:59;;;;;;;1.9;1.2;;;;;;;;;;;;;
2021/03/26 00:56:24;;;;;;;2.2;1.3;;;;;;;;;;;;;
2021/03/26 00:58:50;;;;;;;1.4;0.8;;;;;;;;;;;;;
2021/03/26 01:01:16;;;;;;;2;1.2;;;;;;;;;;;;;
2021/03/26 01:03:42;;;;;;;2.7;1.3;;;;;;;;;;;;;
2021/03/26 01:06:08;;;;;;;2.5;1.2;;;;;;;;;;;;;
2021/03/26 01:08:33;;;;;;;1.2;1;;;;;;;;;;;;;
2021/03/26 01:10:58;;;;;;;1.6;1.1;;;;;;;;;;;;;
2021/03/26 01:13:23;;;;;;;1.8;1;;;;;;;;;;;;;
2021/03/26 01:15:51;;;;;;;1.4;1;;;;;;;;;;;;;
2021/03/26 01:18:16;;;;;;;1.1;0.9;;;;;;;;;;;;;
2021/03/26 01:20:41;;;;;;;1.1;1;;;;;;;;;;;;;
2021/03/26 01:23:06;;;;;;;1.2;1;;;;;;;;;;;;;
2021/03/26 01:25:32;;;;;;;1.3;1.1;;;;;;;;;;;;;
2021/03/26 01:27:57;;;;;;;1.9;1.1;;;;;;;;;;;;;
2021/03/26 01:30:24;;;;;;;2.9;1.4;;;;;;;;;;;;;
2021/03/26 01:32:49;;;;;;;1.7;1.1;;;;;;;;;;;;;
2021/03/26 01:35:15;;;;;;;1.7;1.1;;;;;;;;;;;;;
2021/03/26 01:37:40;;;;;;;0.9;0.8;;;;;;;;;;;;;
2021/03/26 01:40:06;;;;;;;1.2;1.1;;;;;;;;;;;;;
2021/03/26 01:42:31;;;;;;;3.1;1.2;;;;;;;;;;;;;
2021/03/26 01:44:56;;;;;;;2.5;0.9;;;;;;;;;;;;;
2021/03/26 01:47:21;;;;;;;2.7;1.2;;;;;;;;;;;;;
2021/03/26 01:49:46;;;;;;;1.7;1.2;;;;;;;;;;;;;
2021/03/26 01:52:12;;;;;;;1.3;0.9;;;;;;;;;;;;;
2021/03/26 01:54:37;;;;;;;1.5;0.9;;;;;;;;;;;;;
2021/03/26 01:57:03;;;;;;;1.8;1.2;;;;;;;;;;;;;
2021/03/26 01:59:28;;;;;;;1.2;0.8;;;;;;;;;;;;;
2021/03/26 02:01:54;;;;;;;2.9;1.2;;;;;;;;;;;;;
2021/03/26 02:04:19;;;;;;;1.6;1.1;;;;;;;;;;;;;
2021/03/26 02:06:45;;;;;;;1.7;1.1;;;;;;;;;;;;;
2021/03/26 02:09:10;;;;;;;3;0.9;;;;;;;;;;;;;
2021/03/26 02:11:36;;;;;;;1;0.9;;;;;;;;;;;;;
2021/03/26 02:14:01;;;;;;;1.2;0.8;;;;;;;;;;;;;
2021/03/26 02:16:27;;;;;;;1.5;0.9;;;;;;;;;;;;;
2021/03/26 02:18:53;;;;;;;1.7;1.4;;;;;;;;;;;;;
2021/03/26 02:21:20;;;;;;;1.3;0.8;;;;;;;;;;;;;
2021/03/26 02:23:45;;;;;;;1.1;1;;;;;;;;;;;;;
2021/03/26 02:26:11;;;;;;;1.6;0.9;;;;;;;;;;;;;
2021/03/26 02:28:36;;;;;;;1.5;1;;;;;;;;;;;;;
2021/03/26 02:31:01;;;;;;;1.9;1.4;;;;;;;;;;;;;
2021/03/26 02:33:27;;;;;;;1.1;0.7;;;;;;;;;;;;;
2021/03/26 02:35:53;;;;;;;1.9;1;;;;;;;;;;;;;
2021/03/26 02:38:18;;;;;;;0.8;0.8;;;;;;;;;;;;;
2021/03/26 02:40:43;;;;;;;0.9;0.8;;;;;;;;;;;;;
2021/03/26 02:43:08;;;;;;;1.3;0.9;;;;;;;;;;;;;
2021/03/26 02:45:35;;;;;;;3;0.9;;;;;;;;;;;;;
2021/03/26 02:48:00;;;;;;;1.2;0.9;;;;;;;;;;;;;
2021/03/26 02:50:25;;;;;;;1.4;1;;;;;;;;;;;;;
2021/03/26 02:52:50;;;;;;;1.6;1.2;;;;;;;;;;;;;
2021/03/26 02:55:16;;;;;;;1;0.8;;;;;;;;;;;;;
2021/03/26 02:57:42;;;;;;;1;0.6;;;;;;;;;;;;;
2021/03/26 03:00:07;;;;;;;0.9;0.9;;;;;;;;;;;;;
2021/03/26 03:02:32;;;;;;;0.8;0.8;;;;;;;;;;;;;
2021/03/26 03:04:58;;;;;;;2.6;0.9;;;;;;;;;;;;;
2021/03/26 03:07:23;;;;;;;1.3;1;;;;;;;;;;;;;
2021/03/26 03:09:50;;;;;;;1.2;1.1;;;;;;;;;;;;;
2021/03/26 03:12:15;;;;;;;1.3;0.8;;;;;;;;;;;;;
2021/03/26 03:14:40;;;;;;;0.8;0.8;;;;;;;;;;;;;
2021/03/26 03:17:05;;;;;;;1;0.7;;;;;;;;;;;;;
2021/03/26 03:19:31;;;;;;;1.1;0.9;;;;;;;;;;;;;
2021/03/26 03:21:56;;;;;;;0.6;0.6;;;;;;;;;;;;;
2021/03/26 03:24:22;;;;;;;1.4;0.9;;;;;;;;;;;;;
2021/03/26 03:26:47;;;;;;;3.6;1;;;;;;;;;;;;;
2021/03/26 03:29:12;;;;;;;1.5;0.9;;;;;;;;;;;;;
2021/03/26 03:31:37;;;;;;;0.7;0.7;;;;;;;;;;;;;
2021/03/26 03:34:03;;;;;;;4;0.9;;;;;;;;;;;;;
2021/03/26 03:36:30;;;;;;;1.1;0.9;;;;;;;;;;;;;
2021/03/26 03:38:55;;;;;;;1.3;0.9;;;;;;;;;;;;;
2021/03/26 03:41:20;;;;;;;4.3;1;;;;;;;;;;;;;
2021/03/26 03:43:45;;;;;;;2.4;1.5;;;;;;;;;;;;;
2021/03/26 03:46:12;;;;;;;2.2;1.1;;;;;;;;;;;;;
2021/03/26 03:48:37;;;;;;;1.5;1.3;;;;;;;;;;;;;
2021/03/26 03:51:02;;;;;;;7.7;1.9;;;;;;;;;;;;;
2021/03/26 03:53:27;;;;;;;3.8;1.3;;;;;;;;;;;;;
2021/03/26 03:55:53;;;;;;;1.6;1.2;;;;;;;;;;;;;
2021/03/26 03:58:18;;;;;;;1.8;1.2;;;;;;;;;;;;;
2021/03/26 04:02:30;;;;;;;3.4;1.5;;;;;;;2.05;79.25098;942.6461;;;;
2021/03/26 04:04:56;;;;;;;0.6;0.6;;;;;;;2.09;78.94629;942.7165;;;;
2021/03/26 04:07:22;;;;;;;1.9;1.3;;;;;;;2.06;79.11816;942.6648;;;;
2021/03/26 04:09:47;;;;;;;1;0.9;;;;;;;2;79.14063;942.6644;;;;
2021/03/26 04:12:12;;;;;;;1.1;1;;;;;;;2.12;78.78125;942.5134;;;;
2021/03/26 04:14:37;;;;;;;2.7;1.6;;;;;;;2.07;78.49316;942.6429;;;;
2021/03/26 04:17:02;;;;;;;2;1.4;;;;;;;1.92;79.13672;942.5012;;;;
2021/03/26 04:19:27;;;;;;;2;1.4;;;;;;;1.93;79.28516;942.5994;;;;
2021/03/26 04:21:53;;;;;;;2.5;1.3;;;;;;;1.92;79.31543;942.597;;;;
2021/03/26 04:24:18;;;;;;;1.2;1.1;;;;;;;1.92;79.42773;942.6259;;;;
2021/03/26 04:26:43;;;;;;;6.1;2;;;;;;;1.86;79.09277;942.6022;;;;
2021/03/26 04:29:08;;;;;;;1.3;1.1;;;;;;;1.89;78.95215;942.55;;;;
2021/03/26 04:31:33;;;;;;;1.9;1.3;;;;;;;1.98;78.46582;942.5578;;;;
2021/03/26 04:33:59;;;;;;;0.6;0.4;;;;;;;1.94;78.38965;942.5556;;;;
2021/03/26 04:36:26;;;;;;;1.8;1.3;;;;;;;1.91;78.5752;942.4756;;;;
2021/03/26 04:38:50;;;;;;;3.3;1;;;;;;;1.74;79.27051;942.5988;;;;
2021/03/26 04:41:15;;;;;;;2.4;1.1;;;;;;;1.71;79.7334;942.5722;;;;
2021/03/26 04:43:41;;;;;;;2.2;1;;;;;;;1.83;79.28711;942.5724;;;;
2021/03/26 04:46:05;;;;;;;3;1;;;;;;;1.89;78.83887;942.5648;;;;
2021/03/26 04:48:31;;;;;;;1.4;1;;;;;;;1.83;78.95215;942.5675;;;;
2021/03/26 04:50:56;;;;;;;1.2;1.1;;;;;;;1.76;79.09473;942.4406;;;;
2021/03/26 04:53:21;;;;;;;3.8;1.3;;;;;;;1.73;79.37891;942.5214;;;;
2021/03/26 04:55:46;;;;;;;6.9;2.2;;;;;;;1.75;79.37305;942.5051;;;;
2021/03/26 04:58:11;;;;;;;6;3.9;;;;;;;1.7;79.64258;942.5183;;;;
2021/03/26 05:00:36;;;;;;;4.6;3.4;;;;;;;1.72;79.61426;942.4747;;;;
2021/03/26 05:03:01;;;;;;;8.1;2.9;;;;;;;1.61;79.87109;942.5179;;;;
2021/03/26 05:05:27;;;;;;;2.8;1.5;;;;;;;1.51;80.48047;942.5181;;;;
2021/03/26 05:07:52;;;;;;;2.7;1.2;;;;;;;1.48;80.66309;942.4814;;;;
2021/03/26 05:10:17;;;;;;;1.7;1.1;;;;;;;1.45;80.97168;942.4698;;;;
2021/03/26 05:12:42;;;;;;;1.1;1;;;;;;;1.55;80.59766;942.4219;;;;
2021/03/26 05:15:08;;;;;;;1.8;1.2;;;;;;;1.53;80.54102;942.4654;;;;
2021/03/26 05:17:32;;;;;;;1;0.9;;;;;;;1.61;80.31055;942.4625;;;;
2021/03/26 05:19:58;;;;;;;1.1;0.8;;;;;;;1.62;80.45605;942.4713;;;;
2021/03/26 05:22:23;;;;;;;2;1.1;;;;;;;1.72;80.0166;942.382;;;;
2021/03/26 05:24:48;;;;;;;1.3;0.7;;;;;;;1.82;79.54297;942.4508;;;;
2021/03/26 05:27:13;;;;;;;1.1;0.8;;;;;;;1.87;79.16113;942.5019;;;;
2021/03/26 05:29:38;;;;;;;1.9;1.5;;;;;;;1.88;79.01758;942.5435;;;;
2021/03/26 05:32:03;;;;;;;2;1;;;;;;;1.85;79.40234;942.5081;;;;
2021/03/26 05:34:29;;;;;;;2.2;1.2;;;;;;;2.05;78.82422;942.5516;;;;
2021/03/26 05:36:55;;;;;;;1.6;1.5;;;;;;;2.22;77.97363;942.481;;;;
2021/03/26 05:39:20;;;;;;;2.3;1.4;;;;;;;2.31;77.31641;942.5525;;;;
2021/03/26 05:41:46;;;;;;;2.4;1.6;;;;;;;2.15;77.38867;942.5549;;;;
2021/03/26 05:44:13;;;;;;;2.7;1.6;;;;;;;2.2;77.23047;942.539;;;;
2021/03/26 05:46:38;;;;;;;2.3;1.5;;;;;;;2.24;77.08105;942.5394;;;;
2021/03/26 05:49:03;;;;;;;6.7;1.3;;;;;;;2.14;77.52148;942.575;;;;
2021/03/26 05:51:30;;;;;;;2.3;1.4;;;;;;;2.16;77.97266;942.5164;;;;
2021/03/26 05:53:55;;;;;;;3.2;1.6;;;;;;;2.56;76.80176;942.4601;;;;
2021/03/26 05:56:20;;;;;;;1.1;1;;;;;;;3.19;74.53711;942.4758;;;;
2021/03/26 05:58:47;;;;;;;0.8;0.8;;;;;;;4.01;71.23926;942.4589;;;;
2021/03/26 06:01:12;;;;;;;1.8;1.1;;;;;;;4.51;68.7998;942.4695;;;;
2021/03/26 06:03:37;;;;;;;2.4;1.2;;;;;;;4.93;66.96289;942.4;;;;
2021/03/26 06:06:04;;;;;;;2.3;1.7;;;;;;;4.95;66.90039;942.4601;;;;
2021/03/26 06:08:29;;;;;;;2.3;2;;;;;;;5.41;65.44922;942.4089;;;;
2021/03/26 06:10:55;;;;;;;3;2.1;;;;;;;6.06;63.37891;942.4039;;;;
2021/03/26 06:13:21;;;;;;;2.7;2;;;;;;;6.7;60.81348;942.3575;;;;
2021/03/26 06:15:50;;;;;;;3.9;1.5;;;;;;;6.24;61.32617;942.3967;;;;
2021/03/26 06:18:15;;;;;;;1.9;1.6;;;;;;;7;59.71289;942.3488;;;;
2021/03/26 06:20:39;;;;;;;2.1;1.2;;;;;;;8.05;56.0791;942.4124;;;;
2021/03/26 06:23:05;;;;;;;1.6;0.9;;;;;;;8.72;53.59766;942.3352;;;;
2021/03/26 06:25:30;;;;;;;1.5;1.2;;;;;;;8.96;52.36426;942.3386;;;;
2021/03/26 06:27:55;;;;;;;1.8;1.2;;;;;;;9.1;52.17578;942.3569;;;;
2021/03/26 06:30:21;;;;;;;12.3;1.1;;;;;;;9.34;51.54492;942.3058;;;;
2021/03/26 06:32:46;;;;;;;0.8;0.7;;;;;;;9.45;51.4209;942.212;;;;
2021/03/26 06:35:11;;;;;;;1.6;1;;;;;;;9.99;49.83203;942.2642;;;;
2021/03/26 06:37:38;;;;;;;1.8;1.1;;;;;;;9.9;49.39941;942.2253;;;;
2021/03/26 06:40:03;;;;;;;2.4;1.4;;;;;;;10.19;48.47461;942.2083;;;;
2021/03/26 06:42:28;;;;;;;3.4;1.3;;;;;;;10.12;49.03809;942.243;;;;
2021/03/26 06:44:53;;;;;;;3.8;1.4;;;;;;;9.87;49.94434;942.1754;;;;
2021/03/26 06:47:18;;;;;;;1.3;0.7;;;;;;;10.21;48.81836;942.1286;;;;
2021/03/26 06:49:47;;;;;;;3.4;1.3;;;;;;;10.01;49.25293;942.1615;;;;
2021/03/26 06:52:09;;;;;;;4.3;1.6;;;;;;;9.56;50.5;942.1149;;;;
2021/03/26 06:54:34;;;;;;;2.7;0.8;;;;;;;9.93;49.25488;942.1111;;;;
2021/03/26 06:56:59;;;;;;;1.6;1.2;;;;;;;9.8;49.27344;942.0464;;;;
2021/03/26 06:59:25;;;;;;;2.8;1.1;;;;;;;10.02;48.84375;941.978;;;;
2021/03/26 07:01:50;;;;;;;3.1;1.2;;;;;;;9.32;50.13086;942.0067;;;;
2021/03/26 07:04:16;;;;;;;0.6;0.6;;;;;;;9.51;50.20996;941.9542;;;;
2021/03/26 07:06:42;;;;;;;2.2;1.2;;;;;;;10.02;48.06738;941.9197;;;;
2021/03/26 07:09:05;;;;;;;1.1;0.6;;;;;;;10.08;48.4043;941.92;;;;
2021/03/26 07:11:30;;;;;;;2.5;1.6;;;;;;;10.69;46.26855;941.8289;;;;
2021/03/26 07:13:56;;;;;;;9.3;1;;;;;;;10.34;46.4375;941.9512;;;;
2021/03/26 07:16:24;;;;;;;0.9;0.7;;;;;;;10.22;46.66309;941.9221;;;;
2021/03/26 07:18:50;;;;;;;1.2;0.7;;;;;;;10.12;49.19629;941.7981;;;;
2021/03/26 07:21:16;;;;;;;3.3;0.6;;;;;;;10.78;46.66797;941.8311;;;;
2021/03/26 07:23:40;;;;;;;0.5;0.5;;;;;;;12.44;43.80762;941.7245;;;;
2021/03/26 07:26:08;;;;;;;1.9;0.8;;;;;;;12.64;41.77441;941.6831;;;;
2021/03/26 07:28:36;;;;;;;0.7;0.4;;;;;;;13.09;39.8877;941.728;;;;
2021/03/26 07:31:00;;;;;;;1.9;0.8;;;;;;;12.6;40.50781;941.7393;;;;
2021/03/26 07:33:25;;;;;;;1.6;0.8;;;;;;;12.12;41.49414;941.6294;;;;
2021/03/26 07:35:50;;;;;;;2.4;0.8;;;;;;;12.03;41.6123;941.6573;;;;
2021/03/26 07:38:15;;;;;;;3.6;0.6;;;;;;;11.8;41.97852;941.6953;;;;
2021/03/26 07:40:44;;;;;;;1.2;0.6;;;;;;;11.81;41.92383;941.5928;;;;
2021/03/26 07:43:11;;;;;;;1.2;0.6;;;;;;;12.63;41.23438;941.5361;;;;
2021/03/26 07:45:36;;;;;;;1.1;0.4;;;;;;;13.27;39.57031;941.5336;;;;
2021/03/26 07:48:02;;;;;;;0.3;0.2;;;;;;;13.55;37.27344;941.4781;;;;
2021/03/26 07:50:27;;;;;;;0.6;0.6;;;;;;;12.8;38.9082;941.4037;;;;
2021/03/26 07:52:53;;;;;;;0.4;0.3;;;;;;;13.15;38.62891;941.462;;;;
2021/03/26 07:55:20;;;;;;;2.3;1.2;;;;;;;13.73;37.89844;941.3892;;;;
2021/03/26 07:57:44;;;;;;;1.4;0.5;;;;;;;14.44;35.29883;941.3497;;;;
2021/03/26 08:00:09;;;;;;;3.6;0.7;;;;;;;15.64;35.47656;941.4119;;;;
2021/03/26 08:02:34;;;;;;;15.4;1.1;;;;;;;17.22;31.66309;941.338;;;;
2021/03/26 08:05:00;;;;;;;3.1;0.8;;;;;;;18.69;30.29199;941.3428;;;;
2021/03/26 08:07:25;;;;;;;1.8;0.8;;;;;;;18.66;28.66113;941.3142;;;;
2021/03/26 08:09:51;;;;;;;0.3;0.3;;;;;;;18.22;28.70313;941.3622;;;;
2021/03/26 08:12:16;;;;;;;0.3;0.3;;;;;;;16.59;30.80762;941.2939;;;;
2021/03/26 08:14:42;;;;;;;2;0.3;;;;;;;16.73;31.10645;941.3423;;;;
2021/03/26 08:17:07;;;;;;;3;0.4;;;;;;;16.72;29.80859;941.3264;;;;
2021/03/26 08:19:32;;;;;;;4.5;0.7;;;;;;;16.73;30.09863;941.3134;;;;
2021/03/26 08:21:57;;;;;;;0.6;0.3;;;;;;;16.44;30.85449;941.247;;;;
2021/03/26 08:24:26;;;;;;;2.3;0.6;;;;;;;17.08;29.98438;941.259;;;;
2021/03/26 08:26:51;;;;;;;0.6;0.4;;;;;;;16.75;29.83398;941.3011;;;;
2021/03/26 08:29:24;;;;;;;0.3;0.2;;;;;;;16.75;30.63281;941.2433;;;;
2021/03/26 08:31:42;;;;;;;2.2;0.5;;;;;;;17.75;28.60156;941.1481;;;;
2021/03/26 08:34:09;;;;;;;0.3;0.1;;;;;;;19.5;26.68848;941.1449;;;;
2021/03/26 08:36:35;;;;;;;0.1;0.1;;;;;;;19.71;26.64258;941.1822;;;;
2021/03/26 08:39:00;;;;;;;0.4;0.4;;;;;;;19.74;24.77832;941.1219;;;;
2021/03/26 08:41:25;;;;;;;0.6;0.3;;;;;;;19.65;24.79688;941.1092;;;;
2021/03/26 08:43:51;;;;;;;0.7;0.3;;;;;;;21.13;25.17188;941.0714;;;;
2021/03/26 08:46:16;;;;;;;0.6;0.5;;;;;;;22.59;25.04395;941.0747;;;;
2021/03/26 08:48:44;;;;;;;0.5;0.3;;;;;;;23.28;21.02832;941.0608;;;;
2021/03/26 08:51:11;;;;;;;0.8;0.3;;;;;;;23.5;21.29688;941.0037;;;;
2021/03/26 08:53:36;;;;;;;1.5;0.8;;;;;;;24.95;20.49316;941.0311;;;;
2021/03/26 08:56:03;;;;;;;0.3;0.2;;;;;;;25.61;19.64941;940.9609;;;;
2021/03/26 08:58:28;;;;;;;0.5;0.4;;;;;;;25.28;20.41406;940.9783;;;;
2021/03/26 09:00:53;;;;;;;0.2;0.1;;;;;;;23.68;22.03516;940.9361;;;;
2021/03/26 09:03:27;;;;;;;0.9;0.5;;;;;;;24.16;22.07031;940.9239;;;;
2021/03/26 09:05:52;;;;;;;0.1;0.1;;;;;;;24.52;21.49902;940.9522;;;;
2021/03/26 09:08:23;;;;;;;0.4;0.3;;;;;;;25.56;19.6709;940.8741;;;;
2021/03/26 09:10:48;;;;;;;0.4;0.4;;;;;;;26.25;19.23926;940.8392;;;;
2021/03/26 09:13:14;;;;;;;2.6;0.6;;;;;;;25.23;18.85352;940.8476;;;;
2021/03/26 09:15:47;;;;;;;0.4;0.3;;;;;;;23.74;22.14355;940.8816;;;;
2021/03/26 09:18:12;;;;;;;4.3;0.4;;;;;;;23.92;21.21094;940.8613;;;;
2021/03/26 09:20:38;;;;;;;0.3;0.3;;;;;;;24.79;20.66309;940.9063;;;;
2021/03/26 09:23:03;;;;;;;0.7;0.4;;;;;;;23.82;20.6416;940.825;;;;
2021/03/26 09:25:31;;;;;;;0.5;0.4;;;;;;;25.31;20.60352;940.7961;;;;
2021/03/26 09:27:56;;;;;;;0.5;0.3;;;;;;;25.88;19.94434;940.8058;;;;
2021/03/26 09:30:21;;;;;;;2.7;0.2;;;;;;;26.4;18.97363;940.8141;;;;
2021/03/26 09:32:46;;;;;;;0.6;0.3;;;;;;;26.16;18.62012;940.7735;;;;
2021/03/26 09:35:12;;;;;;;0.3;0.2;;;;;;;26.14;18.64355;940.7745;;;;
2021/03/26 09:37:37;;;;;;;0.5;0.2;;;;;;;25.42;19.84082;940.7781;;;;
2021/03/26 09:40:02;;;;;;;0.4;0.2;;;;;;;23.81;19.55762;940.8017;;;;
2021/03/26 09:42:28;;;;;;;2.6;0.9;;;;;;;23.75;20.30859;940.7708;;;;
2021/03/26 09:44:53;;;;;;;0.2;0.1;;;;;;;22.5;22.03516;940.6785;;;;
2021/03/26 09:47:18;;;;;;;1.4;0.4;;;;;;;21.34;23.97852;940.7489;;;;
2021/03/26 09:49:46;;;;;;;0.2;0.2;;;;;;;22.27;21.96484;940.6822;;;;
2021/03/26 09:52:11;;;;;;;0.5;0.5;;;;;;;22.88;20.71582;940.6599;;;;
2021/03/26 09:54:38;;;;;;;0.6;0.5;;;;;;;23.02;21.21484;940.6219;;;;
2021/03/26 09:57:01;;;;;;;0.2;0.2;;;;;;;23.44;20.38867;940.6417;;;;
2021/03/26 09:59:26;;;;;;;0.3;0.2;;;;;;;24.27;19.95508;940.5513;;;;
2021/03/26 10:01:51;;;;;;;0.4;0.1;;;;;;;23.85;19.6543;940.6217;;;;
2021/03/26 10:04:18;;;;;;;1.9;0.4;;;;;;;23.89;21.75098;940.5818;;;;
2021/03/26 10:06:45;;;;;;;1.6;0.3;;;;;;;23.55;18.9707;940.5148;;;;
2021/03/26 10:09:11;;;;;;;0.1;0.1;;;;;;;23;19.37012;940.4835;;;;
2021/03/26 10:11:34;;;;;;;0.4;0.3;;;;;;;23.17;21.49219;940.4942;;;;
2021/03/26 10:14:02;;;;;;;0.7;0.2;;;;;;;23.68;18.76465;940.449;;;;
2021/03/26 10:16:29;;;;;;;0.4;0.4;;;;;;;24.68;18.39355;940.4637;;;;
2021/03/26 10:18:55;;;;;;;0.1;0.1;;;;;;;24.68;20.5752;940.4355;;;;
2021/03/26 10:21:20;;;;;;;1.2;0.4;;;;;;;23.88;21.05566;940.4529;;;;
2021/03/26 10:23:45;;;;;;;0.8;0.4;;;;;;;23.34;20.74805;940.3387;;;;
2021/03/26 10:26:11;;;;;;;0.4;0.3;;;;;;;23.39;20.78613;940.3158;;;;
2021/03/26 10:28:38;;;;;;;0.2;0.1;;;;;;;24.68;19.45508;940.275;;;;
2021/03/26 10:31:02;;;;;;;0.2;0.1;;;;;;;25.56;18.5957;940.1555;;;;
2021/03/26 10:33:27;;;;;;;0.5;0.3;;;;;;;26.04;19.05273;940.1533;;;;
2021/03/26 10:35:52;;;;;;;0.2;0.2;;;;;;;24.99;18.41797;940.1539;;;;
2021/03/26 10:38:17;;;;;;;0.3;0.3;;;;;;;24.98;19.00781;940.1247;;;;
2021/03/26 10:40:42;;;;;;;0.1;0.1;;;;;;;25.37;18.5752;940.1735;;;;
2021/03/26 10:43:11;;;;;;;0.9;0.2;;;;;;;26.44;17.17578;940.0148;;;;
2021/03/26 10:45:35;;;;;;;0.4;0.4;;;;;;;26.22;18.14941;940.0822;;;;
2021/03/26 10:48:00;;;;;;;0.3;0.2;;;;;;;25.98;17.16992;939.9885;;;;
2021/03/26 10:50:27;;;;;;;0.2;0.2;;;;;;;27.19;17.02734;939.9614;;;;
2021/03/26 10:52:50;;;;;;;0.1;0.1;;;;;;;27.77;15.64746;939.9708;;;;
2021/03/26 10:55:16;;;;;;;0.3;0.2;;;;;;;28.35;15.70313;939.9341;;;;
2021/03/26 10:57:41;;;;;;;0.5;0.3;;;;;;;28.33;16.57031;939.8743;;;;
2021/03/26 11:00:09;;;;;;;0.3;0.1;;;;;;;28.77;16.26563;939.8466;;;;
2021/03/26 11:02:34;;;;;;;0.1;0.1;;;;;;;29.28;15.68848;939.8304;;;;
2021/03/26 11:04:59;;;;;;;0.4;0.3;;;;;;;28.37;15.2168;939.7687;;;;
2021/03/26 11:07:29;;;;;;;0.5;0;;;;;;;28.26;16.9248;939.8125;;;;
2021/03/26 11:09:55;;;;;;;0.3;0.2;;;;;;;27.68;17.91113;939.7425;;;;
2021/03/26 11:12:19;;;;;;;0.4;0.3;;;;;;;26.71;21.6748;939.7328;;;;
2021/03/26 11:14:44;;;;;;;0.5;0.2;;;;;;;25.74;21.66406;939.7234;;;;
2021/03/26 11:17:09;;;;;;;0.2;0.1;;;;;;;25.54;21.58301;939.7535;;;;
2021/03/26 11:19:34;;;;;;;0.2;0.2;;;;;;;25.3;22.5166;939.7839;;;;
2021/03/26 11:21:59;;;;;;;0.2;0.2;;;;;;;25.05;22.90527;939.7231;;;;
2021/03/26 11:24:25;;;;;;;0.4;0.3;;;;;;;26.43;20.02832;939.6884;;;;
2021/03/26 11:26:50;;;;;;;0.7;0.2;;;;;;;26.63;19.24414;939.7062;;;;
2021/03/26 11:29:17;;;;;;;0.3;0.2;;;;;;;25.98;21.26172;939.6111;;;;
2021/03/26 11:31:42;;;;;;;0.8;0.3;;;;;;;26.19;20.8457;939.6072;;;;
2021/03/26 11:34:07;;;;;;;0.1;0.1;;;;;;;26.06;20.70996;939.5905;;;;
2021/03/26 11:36:32;;;;;;;0.5;0.1;;;;;;;26.72;20.55078;939.5737;;;;
2021/03/26 11:38:58;;;;;;;0.5;0.3;;;;;;;27.05;19.37988;939.5712;;;;
2021/03/26 11:41:23;;;;;;;1.6;0.3;;;;;;;27.39;20.28516;939.5829;;;;
2021/03/26 11:43:48;;;;;;;0.2;0.2;;;;;;;28.14;19.04688;939.5659;;;;
2021/03/26 11:46:13;;;;;;;0.5;0.2;;;;;;;28.41;18.85645;939.4764;;;;
2021/03/26 11:48:39;;;;;;;0.7;0.5;;;;;;;27.19;20.22754;939.5388;;;;
2021/03/26 11:51:04;;;;;;;0.4;0.3;;;;;;;26.78;20.54102;939.4719;;;;
2021/03/26 11:53:29;;;;;;;1.5;0.5;;;;;;;27.01;20.14941;939.4391;;;;
2021/03/26 11:55:56;;;;;;;0.2;0.2;;;;;;;26.34;21.43262;939.3781;;;;
2021/03/26 11:58:21;;;;;;;2.9;0.6;;;;;;;26.03;21.37012;939.2991;;;;
2021/03/26 12:00:46;;;;;;;0.5;0.2;;;;;;;25.89;22.47559;939.3088;;;;
2021/03/26 12:03:11;;;;;;;0.2;0.2;;;;;;;26.57;20.76855;939.2363;;;;
2021/03/26 12:05:37;;;;;;;0.5;0.4;;;;;;;26.36;20.8418;939.2124;;;;
2021/03/26 12:08:02;;;;;;;0.8;0.4;;;;;;;26.01;23.33203;939.2045;;;;
2021/03/26 12:10:27;;;;;;;0.5;0.4;;;;;;;25.39;21.87207;939.0898;;;;
2021/03/26 12:12:53;;;;;;;0.8;0.4;;;;;;;24.53;24.18652;939.1442;;;;
2021/03/26 12:15:22;;;;;;;0.7;0.2;;;;;;;24.46;24.05371;939.0681;;;;
2021/03/26 12:17:47;;;;;;;1.8;0.2;;;;;;;24.17;23.88477;939.0528;;;;
2021/03/26 12:20:13;;;;;;;0.8;0.3;;;;;;;24.8;22.30273;939.1122;;;;
2021/03/26 12:22:41;;;;;;;0.4;0.4;;;;;;;25.44;22.72461;939.1017;;;;
2021/03/26 12:25:04;;;;;;;0.1;0.1;;;;;;;24.74;22.48828;939.0359;;;;
2021/03/26 12:27:28;;;;;;;1.2;0.4;;;;;;;24.14;23.04688;938.954;;;;
2021/03/26 12:29:53;;;;;;;0.3;0.2;;;;;;;24.08;23.44434;938.9931;;;;
2021/03/26 12:32:18;;;;;;;0.8;0.5;;;;;;;24.45;23.11035;938.9655;;;;
2021/03/26 12:34:45;;;;;;;0.6;0.1;;;;;;;24.97;22.81836;938.9445;;;;
2021/03/26 12:37:11;;;;;;;1.3;0.5;;;;;;;25;22.71387;938.9753;;;;
2021/03/26 12:39:36;;;;;;;1.1;0.5;;;;;;;24.67;23.44043;938.9395;;;;
2021/03/26 12:42:01;;;;;;;0.4;0.3;;;;;;;24.41;24.22754;938.9372;;;;
2021/03/26 12:44:26;;;;;;;0.4;0.4;;;;;;;24.91;22.6377;938.9255;;;;
2021/03/26 12:46:51;;;;;;;0.6;0.2;;;;;;;25.05;23.37695;938.9219;;;;
2021/03/26 12:49:17;;;;;;;0.6;0.4;;;;;;;24.98;22.26465;938.9472;;;;
2021/03/26 12:51:42;;;;;;;0.4;0.3;;;;;;;24.06;25.13867;938.8541;;;;
2021/03/26 12:54:08;;;;;;;0.3;0.3;;;;;;;24.41;24.47461;938.8683;;;;
2021/03/26 12:56:33;;;;;;;1;0.6;;;;;;;24.91;23.06348;938.8535;;;;
2021/03/26 12:58:58;;;;;;;0.6;0.4;;;;;;;25.51;22.88086;938.7717;;;;
2021/03/26 13:01:23;;;;;;;3.2;0.7;;;;;;;24.91;22.7207;938.8046;;;;
2021/03/26 13:03:49;;;;;;;1.1;0.5;;;;;;;23.66;24.99805;938.8032;;;;
2021/03/26 13:06:14;;;;;;;1.2;0.4;;;;;;;24.71;23.43066;938.6788;;;;
2021/03/26 13:08:39;;;;;;;0.4;0.4;;;;;;;25.33;21.39648;938.702;;;;
2021/03/26 13:11:05;;;;;;;1.5;0.5;;;;;;;26.33;20.48535;938.663;;;;
2021/03/26 13:13:34;;;;;;;0.2;0.1;;;;;;;27.2;20.27637;938.5951;;;;
2021/03/26 13:16:05;;;;;;;0.7;0.4;;;;;;;25.83;21.66797;938.5806;;;;
2021/03/26 13:18:30;;;;;;;2.9;0.5;;;;;;;26.82;19.85645;938.5958;;;;
2021/03/26 13:20:55;;;;;;;1.4;0.8;;;;;;;26.82;20.68555;938.5381;;;;
2021/03/26 13:23:20;;;;;;;0.2;0.2;;;;;;;26.55;21.24121;938.5158;;;;
2021/03/26 13:25:45;;;;;;;0.9;0.5;;;;;;;26.01;21.90137;938.4428;;;;
2021/03/26 13:28:10;;;;;;;0.3;0.3;;;;;;;24.8;23.3877;938.4324;;;;
2021/03/26 13:30:36;;;;;;;0.8;0.5;;;;;;;25.4;21.51758;938.4039;;;;
2021/03/26 13:33:00;;;;;;;1.1;0.3;;;;;;;26.45;20.44336;938.3879;;;;
2021/03/26 13:35:26;;;;;;;0.8;0.4;;;;;;;26.9;19.59863;938.3788;;;;
2021/03/26 13:37:51;;;;;;;0.7;0.2;;;;;;;27.53;19.62695;938.3647;;;;
2021/03/26 13:40:16;;;;;;;0.3;0.3;;;;;;;27.42;18.83887;938.3006;;;;
2021/03/26 13:42:41;;;;;;;0.4;0.3;;;;;;;27.22;19.35254;938.2809;;;;
2021/03/26 13:45:06;;;;;;;0.5;0.3;;;;;;;27.22;19.60156;938.2999;;;;
2021/03/26 13:47:31;;;;;;;2;0.4;;;;;;;26.76;20.43359;938.3032;;;;
2021/03/26 13:49:56;;;;;;;0.8;0.2;;;;;;;26.91;19.90723;938.2456;;;;
2021/03/26 13:52:21;;;;;;;0.5;0.4;;;;;;;26.77;19.79395;938.1895;;;;
2021/03/26 13:54:46;;;;;;;0.7;0.2;;;;;;;26.17;20.64355;938.1887;;;;
2021/03/26 13:57:12;;;;;;;0.2;0.2;;;;;;;26.25;20.65918;938.147;;;;
2021/03/26 13:59:37;;;;;;;0.3;0.2;;;;;;;26.26;21.07324;938.1411;;;;
2021/03/26 14:02:02;;;;;;;0.4;0.4;;;;;;;25.85;21.16113;938.1122;;;;
2021/03/26 14:04:27;;;;;;;0.1;0.1;;;;;;;25.93;20.77441;938.0438;;;;
2021/03/26 14:06:55;;;;;;;0.3;0.3;;;;;;;26.01;20.93164;938.011;;;;
2021/03/26 14:09:20;;;;;;;0.3;0.3;;;;;;;25.96;20.31543;938.0436;;;;
2021/03/26 14:11:50;;;;;;;0.7;0.6;;;;;;;25.58;20.86523;938.0323;;;;
2021/03/26 14:14:15;;;;;;;0.3;0.3;;;;;;;25.03;22.06641;937.9816;;;;
2021/03/26 14:16:41;;;;;;;0.6;0.4;;;;;;;24.32;22.87891;937.8947;;;;
2021/03/26 14:19:06;;;;;;;0.6;0.3;;;;;;;23.9;24.1416;937.9005;;;;
2021/03/26 14:21:33;;;;;;;0.2;0.2;;;;;;;23.57;24.07617;937.8903;;;;
2021/03/26 14:23:58;;;;;;;0.3;0.2;;;;;;;22.71;24.40527;937.9127;;;;
2021/03/26 14:26:24;;;;;;;0.7;0.2;;;;;;;21.91;25.88379;937.9309;;;;
2021/03/26 14:28:49;;;;;;;0.3;0.3;;;;;;;21.54;26.65918;937.9037;;;;
2021/03/26 14:31:14;;;;;;;0.7;0.4;;;;;;;20.95;26.64746;937.8674;;;;
2021/03/26 14:33:40;;;;;;;0.6;0.4;;;;;;;20.65;27.2959;937.8689;;;;
2021/03/26 14:36:08;;;;;;;0.2;0.2;;;;;;;20.5;27.97559;937.8619;;;;
2021/03/26 14:38:35;;;;;;;1.3;0.4;;;;;;;20.37;27.72168;937.8683;;;;
2021/03/26 14:41:00;;;;;;;1.2;0.7;;;;;;;20.17;27.66211;937.8245;;;;
2021/03/26 14:43:25;;;;;;;0.5;0.3;;;;;;;20.18;28.35156;937.8533;;;;
2021/03/26 14:45:50;;;;;;;0.1;0.1;;;;;;;19.93;27.8457;937.7944;;;;
2021/03/26 14:48:15;;;;;;;0.7;0.4;;;;;;;19.79;28.1748;937.7971;;;;
2021/03/26 14:50:40;;;;;;;0.7;0.5;;;;;;;19.65;29.91504;937.787;;;;
2021/03/26 14:53:07;;;;;;;0.5;0.3;;;;;;;19.7;29.87109;937.7825;;;;
2021/03/26 14:55:31;;;;;;;0.5;0.3;;;;;;;19.5;29.68359;937.8115;;;;
2021/03/26 14:57:57;;;;;;;0.2;0.2;;;;;;;19.38;29.2207;937.7625;;;;
2021/03/26 15:00:23;;;;;;;0.7;0.3;;;;;;;19.12;30.1582;937.704;;;;
2021/03/26 15:02:50;;;;;;;1.8;0.4;;;;;;;18.86;30.10547;937.702;;;;
2021/03/26 15:05:15;;;;;;;0.1;0.1;;;;;;;18.9;30.27148;937.6799;;;;
2021/03/26 15:07:41;;;;;;;1.8;0.4;;;;;;;18.92;30.26074;937.7216;;;;
2021/03/26 15:10:08;;;;;;;2.1;0.4;;;;;;;18.9;30.52734;937.7162;;;;
2021/03/26 15:12:33;;;;;;;0.5;0.5;;;;;;;18.95;30.37988;937.6618;;;;
2021/03/26 15:14:59;;;;;;;0.3;0.3;;;;;;;18.86;29.72168;937.5655;;;;
2021/03/26 15:17:24;;;;;;;0.4;0.4;;;;;;;18.55;30.43359;937.7161;;;;
2021/03/26 15:19:49;;;;;;;0.8;0.4;;;;;;;18.5;30.57031;937.7001;;;;
2021/03/26 15:22:14;;;;;;;0.3;0.3;;;;;;;18.2;31.00195;937.71;;;;
2021/03/26 15:24:39;;;;;;;0.4;0.3;;;;;;;18.23;30.86426;937.7266;;;;
2021/03/26 15:27:05;;;;;;;0.5;0.4;;;;;;;18.25;31.17969;937.7505;;;;
2021/03/26 15:29:31;;;;;;;1;0.5;;;;;;;18.12;31.77539;937.7303;;;;
2021/03/26 15:31:58;;;;;;;1.2;0.6;;;;;;;18.1;32.19141;937.6767;;;;